Latest Weather Observations for Gelantipy

IDV60801

Issued at 5:31 pm EDT Wednesday 10 February 2016 (issued every 30 minutes, with the page automatically refreshed every 10 minutes)

About weather observations | Map of weather stations | Latest weather observations for VIC | Other Formats
Station Details ID: 084142 Name: GELANTIPY Lat: -37.22 Lon: 148.26 Height: 755.0 m
Data from the previous 72 hours. | See also: Recent months at Gelantipy
Date/Time
EDT
Temp
°C
App
Temp
°C
Dew
Point
Rel
Hum
%
Delta-T
°C
Wind Press
QNH
hPa
Press
MSL
hPa
Rain
since 9 am
mm
Dir
 
Spd
km/h
Gust
km/h
Spd
kts
Gust
kts
10/05:30pm 17.4 16.1 15.7 90 1.0 SW 17 28 9 15 1015.3 1012.5 0.0
10/05:00pm 19.3 19.1 16.7 85 1.6 SSW 13 19 7 10 1015.0 1012.2 0.0
10/04:30pm 20.6 20.3 17.4 82 2.0 SW 15 22 8 12 1014.8 1012.0 0.0
10/04:00pm 21.9 22.1 17.7 77 2.7 S 13 20 7 11 1014.6 1011.8 0.0
10/03:30pm 23.0 23.1 17.5 71 3.5 SSW 13 19 7 10 1014.5 1011.7 0.0
10/03:00pm 23.1 23.9 18.2 74 3.2 S 11 19 6 10 1014.7 1011.9 0.0
10/02:30pm 23.0 23.2 17.7 72 3.4 S 13 20 7 11 1015.0 1012.2 0.0
10/02:00pm 22.9 23.0 17.4 71 3.5 SSW 13 17 7 9 1015.2 1012.4 0.0
10/01:30pm 22.6 23.2 18.6 78 2.6 S 13 19 7 10 1015.3 1012.5 0.0
10/01:00pm 22.5 23.1 17.6 74 3.1 S 11 17 6 9 1015.3 1012.5 0.0
10/12:30pm 22.0 22.7 18.0 78 2.6 SSE 11 17 6 9 1015.8 1013.0 0.0
10/12:00pm 21.8 22.0 17.6 77 2.7 S 13 20 7 11 1016.1 1013.3 0.0
10/11:30am 21.7 21.8 17.5 77 2.7 S 13 19 7 10 1016.1 1013.3 0.0
10/11:00am 21.8 21.9 17.4 76 2.8 SSW 13 20 7 11 1016.2 1013.4 0.0
10/10:30am 22.8 23.9 17.0 70 3.7 ESE 7 13 4 7 1016.3 1013.5 0.0
10/10:00am 22.1 23.7 15.9 68 3.9 SE 2 7 1 4 1016.3 1013.5 0.0
10/09:30am 20.9 21.5 15.7 72 3.2 NNE 7 11 4 6 1016.4 1013.6 0.0
10/09:00am 19.8 20.1 15.9 78 2.4 NNE 9 11 5 6 1016.3 1013.5 0.0
10/08:30am 18.8 19.0 15.7 82 1.9 NNE 9 13 5 7 1016.3 1013.5 0.0
10/08:00am 17.3 18.0 14.6 84 1.6 NNE 4 7 2 4 1016.3 1013.5 0.0
10/07:30am 15.3 16.1 13.8 91 0.9 ENE 2 6 1 3 1016.2 1013.4 0.0
10/07:00am 13.8 13.0 12.9 94 0.5 NNE 9 13 5 7 1016.0 1013.2 0.0
10/06:30am 14.4 15.3 12.8 90 0.9 CALM 0 6 0 3 1016.1 1013.3 0.0
10/06:00am 14.7 14.3 12.9 89 1.0 NNE 7 13 4 7 1015.7 1012.9 0.0
10/05:30am 14.8 15.9 13.5 92 0.8 CALM 0 6 0 3 1015.6 1012.7 0.0
10/05:00am 15.0 14.8 13.5 91 0.9 NE 7 11 4 6 1015.4 1012.6 0.0
10/04:30am 15.4 14.2 13.9 91 0.9 NNE 13 15 7 8 1015.3 1012.5 0.0
10/04:00am 15.8 14.3 14.2 90 0.9 NNE 15 19 8 10 1015.6 1012.7 0.0
10/03:30am 15.9 14.0 14.1 89 1.1 NNE 17 20 9 11 1015.8 1013.0 0.0
10/03:00am 16.0 14.1 14.2 89 1.1 NNE 17 24 9 13 1015.9 1013.1 0.0
10/02:30am 16.0 14.0 14.0 88 1.2 NNE 17 22 9 12 1016.1 1013.3 0.0
10/02:00am 15.9 14.8 14.4 91 0.9 NNE 13 17 7 9 1016.5 1013.7 0.0
10/01:30am 15.2 14.7 13.9 92 0.8 NNE 9 13 5 7 1017.1 1014.3 0.0
10/01:00am 15.5 14.8 14.2 92 0.8 NNE 11 13 6 7 1017.5 1014.7 0.0
10/12:30am 14.7 14.2 13.7 94 0.6 NNE 9 13 5 7 1017.8 1015.0 0.0
10/12:00am 14.7 14.2 13.9 95 0.5 NNE 9 11 5 6 1018.1 1015.4 0.0
 
Date/Time
EDT
Temp
°C
App
Temp
°C
Dew
Point
Rel
Hum
%
Delta-T
°C
Wind Press
QNH
hPa
Press
MSL
hPa
Rain
since 9 am
mm
Dir
 
Spd
km/h
Gust
km/h
Spd
kts
Gust
kts
09/11:30pm 15.2 16.5 14.1 93 0.6 CALM 0 2 0 1 1018.7 1015.9 0.0
09/11:00pm 15.2 14.8 14.1 93 0.6 NNE 9 11 5 6 1019.0 1016.2 0.0
09/10:30pm 15.7 15.9 14.6 93 0.7 NNE 7 7 4 4 1019.3 1016.6 0.0
09/10:00pm 16.2 17.7 14.6 90 0.9 CALM 0 0 0 0 1019.4 1016.7 0.0
09/09:30pm 16.7 18.2 14.7 88 1.2 CALM 0 0 0 0 1019.4 1016.7 0.0
09/09:00pm 17.3 17.8 15.1 87 1.3 WSW 6 7 3 4 1019.2 1016.5 0.0
09/08:30pm 18.1 18.6 15.0 82 1.9 SW 6 9 3 5 1019.1 1016.3 0.0
09/08:00pm 19.6 20.1 15.5 77 2.5 SW 7 9 4 5 1019.1 1016.3 0.0
09/07:30pm 21.0 21.3 16.0 73 3.1 SW 9 15 5 8 1018.9 1016.1 0.0
09/07:00pm 22.0 22.0 16.3 70 3.6 SSW 11 17 6 9 1018.7 1015.9 0.0
09/06:30pm 22.8 22.9 16.4 67 4.0 SSW 11 19 6 10 1018.6 1015.8 0.0
09/06:00pm 23.8 24.1 17.1 66 4.3 SSW 11 17 6 9 1018.5 1015.7 0.0
09/05:30pm 24.1 23.7 16.1 61 5.0 SSW 13 19 7 10 1018.7 1015.9 0.0
09/05:00pm 24.5 24.4 16.0 59 5.3 SSW 11 19 6 10 1018.9 1016.1 0.0
09/04:30pm 24.3 23.3 14.7 55 5.9 S 13 19 7 10 1019.0 1016.2 0.0
09/04:00pm 24.3 23.8 16.0 60 5.2 SSE 13 20 7 11 1019.3 1016.6 0.0
09/03:30pm 24.9 24.9 16.3 59 5.4 S 11 20 6 11 1019.5 1016.8 0.0
09/03:00pm 24.3 23.5 15.2 57 5.6 S 13 22 7 12 1020.0 1017.2 0.0
09/02:30pm 24.4 23.2 12.7 48 7.0 S 11 19 6 10 1020.3 1017.5 0.0
09/02:00pm 24.5 23.7 12.8 48 7.0 SSE 9 15 5 8 1020.6 1017.9 0.0
09/01:30pm 24.5 23.6 10.8 42 7.9 NW 6 7 3 4 1020.8 1018.1 0.0
09/01:00pm 23.8 21.3 6.6 33 9.2 ENE 9 13 5 7 1021.1 1018.4 0.0
09/12:30pm 23.1 19.1 2.6 26 10.1 NE 13 19 7 10 1021.4 1018.6 0.0
09/12:00pm 21.8 18.7 7.2 39 7.8 NE 13 20 7 11 1021.8 1019.1 0.0
09/11:30am 20.7 18.6 11.1 54 5.5 NE 13 17 7 9 1022.1 1019.4 0.0
09/11:00am 20.3 18.8 13.0 63 4.3 ENE 13 19 7 10 1022.3 1019.6 0.0
09/10:30am 19.0 17.3 13.6 71 3.2 NNE 15 20 8 11 1022.4 1019.7 0.0
09/10:00am 18.0 16.4 13.9 77 2.4 NNE 15 20 8 11 1022.5 1019.8 0.0
09/09:30am 17.0 15.4 13.9 82 1.8 NNE 15 22 8 12 1022.7 1019.9 0.0
09/09:00am 15.9 14.5 13.4 85 1.4 NE 13 19 7 10 1022.8 1020.1 0.0
09/08:30am 14.6 13.0 14.0 96 0.3 NNE 15 20 8 11 1022.7 1019.9 0.0
09/08:00am 12.5 10.8 12.3 99 0.1 NNE 13 19 7 10 1022.8 1020.1 0.0
09/07:30am 12.3 11.9 12.3 100 0.0 NNE 6 7 3 4 1022.8 1020.1 0.0
09/07:00am 11.6 10.3 11.4 99 0.1 N 9 9 5 5 1022.8 1020.1 0.0
09/06:30am 11.5 11.9 11.3 99 0.1 CALM 0 6 0 3 1022.4 1019.7 0.0
09/06:00am 11.6 10.3 11.3 98 0.2 N 9 11 5 6 1022.3 1019.6 0.0
09/05:30am 11.0 9.9 10.5 97 0.3 NNE 7 9 4 5 1021.9 1019.2 0.0
09/05:00am 12.4 13.0 11.9 97 0.3 CALM 0 4 0 2 1021.9 1019.2 0.0
09/04:30am 12.4 12.5 11.6 95 0.4 SE 2 7 1 4 1021.9 1019.2 0.0
09/04:00am 13.1 13.9 12.5 96 0.3 CALM 0 0 0 0 1021.9 1019.2 0.0
09/03:30am 13.2 13.3 12.7 97 0.3 SSE 4 7 2 4 1021.9 1019.2 0.0
09/03:00am 13.4 12.9 12.8 96 0.3 SSE 7 9 4 5 1022.1 1019.4 0.0
09/02:30am 13.5 13.3 13.0 97 0.3 SSE 6 9 3 5 1022.3 1019.6 0.0
09/02:00am 13.9 13.7 13.6 98 0.2 S 7 11 4 6 1022.5 1019.8 0.0
09/01:30am 14.3 14.2 14.0 98 0.2 SSW 7 11 4 6 1022.8 1020.1 0.0
09/01:00am 14.5 14.6 14.0 97 0.3 SW 6 7 3 4 1023.1 1020.4 0.0
09/12:30am 14.7 15.7 14.2 97 0.3 SSW 2 6 1 3 1023.2 1020.5 0.0
09/12:00am 14.6 15.9 14.1 97 0.3 CALM 0 0 0 0 1023.3 1020.6 0.0
 
Date/Time
EDT
Temp
°C
App
Temp
°C
Dew
Point
Rel
Hum
%
Delta-T
°C
Wind Press
QNH
hPa
Press
MSL
hPa
Rain
since 9 am
mm
Dir
 
Spd
km/h
Gust
km/h
Spd
kts
Gust
kts
08/11:30pm 14.9 15.6 14.4 97 0.3 WSW 4 7 2 4 1023.5 1020.8 0.0
08/11:00pm 14.9 15.9 14.4 97 0.3 SSW 2 6 1 3 1023.6 1020.9 0.0
08/10:30pm 15.0 15.1 14.5 97 0.3 SSW 7 11 4 6 1023.5 1020.8 0.0
08/10:00pm 15.1 15.3 14.6 97 0.3 SSW 7 13 4 7 1023.2 1020.5 0.0
08/09:30pm 15.1 14.8 14.5 96 0.4 SSW 9 17 5 9 1023.1 1020.4 0.0
08/09:00pm 15.3 15.6 14.5 95 0.5 S 6 9 3 5 1022.8 1020.1 0.0
08/08:30pm 15.9 16.1 14.6 92 0.8 SW 7 13 4 7 1022.5 1019.8 0.0
08/08:00pm 16.8 16.6 14.8 88 1.2 SSW 9 13 5 7 1022.3 1019.6 0.0
08/07:30pm 17.4 17.7 15.0 86 1.4 SSW 7 13 4 7 1022.2 1019.5 0.0
08/07:00pm 18.1 17.7 15.2 83 1.7 S 11 15 6 8 1021.8 1019.1 0.0
08/06:30pm 17.7 16.9 15.1 85 1.6 SSW 13 20 7 11 1021.7 1019.0 0.0
08/06:00pm 17.8 17.4 15.1 84 1.6 SSW 11 19 6 10 1021.7 1019.0 0.0
08/05:30pm 18.2 17.9 15.5 84 1.6 S 11 17 6 9 1021.6 1018.9 0.0
08/05:00pm 18.5 17.1 15.6 83 1.8 SSW 17 24 9 13 1021.6 1018.9 0.0
08/04:30pm 19.8 18.6 16.1 79 2.3 S 17 26 9 14 1021.5 1018.7 0.0
08/04:00pm 21.8 22.0 17.6 77 2.7 SSW 13 22 7 12 1021.4 1018.6 0.0
08/03:30pm 22.3 21.9 17.2 73 3.2 S 15 22 8 12 1021.3 1018.5 0.0
08/03:00pm 22.8 22.5 17.3 71 3.5 S 15 24 8 13 1021.3 1018.5 0.0
08/02:30pm 23.1 22.7 17.1 69 3.8 SSE 15 22 8 12 1021.1 1018.4 0.0
08/02:00pm 23.2 23.2 17.2 69 3.8 S 13 20 7 11 1021.3 1018.5 0.0
08/01:30pm 23.1 23.7 17.6 71 3.5 S 11 19 6 10 1021.5 1018.7 0.0
08/01:00pm 23.3 23.8 17.5 70 3.7 S 11 20 6 11 1021.6 1018.9 0.0
08/12:30pm 23.4 24.0 15.7 62 4.8 SE 7 15 4 8 1021.7 1019.0 0.0
08/12:00pm 22.8 22.9 15.4 63 4.6 SSE 9 15 5 8 1022.0 1019.3 0.0
08/11:30am 22.3 21.7 14.7 62 4.6 S 11 15 6 8 1022.1 1019.4 0.0
08/11:00am 22.3 22.5 14.7 62 4.6 SSE 7 13 4 7 1022.1 1019.4 0.0
08/10:30am 22.0 21.8 13.1 57 5.3 SE 6 9 3 5 1022.1 1019.4 0.0
08/10:00am 20.8 20.4 12.5 59 4.8 SE 6 9 3 5 1022.2 1019.5 0.0
08/09:30am 19.9 19.3 12.2 61 4.5 SSW 7 11 4 6 1022.2 1019.5 0.0
08/09:00am 20.1 19.0 10.8 55 5.2 SSE 7 13 4 7 1022.1 1019.4 0.0
08/08:30am 19.7 19.2 12.2 62 4.3 ENE 6 7 3 4 1022.0 1019.3 0.0
08/08:00am 17.4 16.6 11.2 67 3.5 NNE 6 9 3 5 1021.8 1019.1 0.0
08/07:30am 15.2 14.2 11.0 76 2.3 NNE 7 9 4 5 1021.6 1018.9 0.0
08/07:00am 13.3 11.9 9.5 78 2.0 N 7 9 4 5 1021.5 1018.7 0.0
08/06:30am 12.4 10.8 8.7 78 1.9 NNE 7 9 4 5 1021.4 1018.6 0.0
08/06:00am 13.2 12.2 8.7 74 2.3 W 4 7 2 4 1021.1 1018.4 0.0
08/05:30am 14.4 13.0 8.8 69 3.0 N 6 9 3 5 1020.8 1018.1 0.0
08/05:00am 13.5 11.6 9.0 74 2.4 NNE 9 11 5 6 1020.5 1017.8 0.0
08/04:30am 13.1 11.2 9.0 76 2.2 NNE 9 11 5 6 1020.6 1017.9 0.0
08/04:00am 14.2 14.0 9.0 71 2.7 CALM 0 0 0 0 1020.7 1018.0 0.0
08/03:30am 14.8 14.5 8.7 67 3.2 CALM 0 0 0 0 1020.6 1017.9 0.0
08/03:00am 14.2 12.8 8.8 70 2.8 NNE 6 7 3 4 1020.7 1018.0 0.0
08/02:30am 14.6 13.1 8.3 66 3.3 NNE 6 9 3 5 1020.9 1018.2 0.0
08/02:00am 14.7 14.4 8.6 67 3.2 CALM 0 0 0 0 1021.0 1018.3 0.0
08/01:30am 14.3 14.0 8.5 68 3.0 CALM 0 0 0 0 1021.0 1018.3 0.0
08/01:00am 14.4 14.2 9.0 70 2.9 CALM 0 0 0 0 1021.0 1018.3 0.0
08/12:30am 14.7 14.5 9.1 69 3.0 CALM 0 0 0 0 1021.1 1018.4 0.0
08/12:00am 15.3 15.1 9.2 67 3.3 CALM 0 0 0 0 1021.1 1018.4 0.0
 
Date/Time
EDT
Temp
°C
App
Temp
°C
Dew
Point
Rel
Hum
%
Delta-T
°C
Wind Press
QNH
hPa
Press
MSL
hPa
Rain
since 9 am
mm
Dir
 
Spd
km/h
Gust
km/h
Spd
kts
Gust
kts
07/11:30pm 14.6 14.5 9.4 71 2.8 CALM 0 0 0 0 1021.3 1018.5 0.0
07/11:00pm 15.2 13.9 9.8 70 2.9 NNE 7 7 4 4 1021.3 1018.5 0.0
07/10:30pm 16.3 14.9 9.5 64 3.7 NNE 7 9 4 5 1021.4 1018.6 0.0
07/10:00pm 16.5 16.5 9.9 65 3.6 CALM 0 0 0 0 1021.4 1018.6 0.0
07/09:30pm 17.2 17.1 9.6 61 4.1 CALM 0 4 0 2 1021.1 1018.4 0.0
07/09:00pm 17.1 16.0 9.8 62 4.0 NNE 6 7 3 4 1020.8 1018.1 0.0
07/08:30pm 19.7 18.6 9.9 53 5.4 WSW 6 7 3 4 1020.6 1017.9 0.0
07/08:00pm 21.3 19.9 9.5 47 6.5 SW 7 11 4 6 1020.3 1017.5 0.0
07/07:30pm 22.8 21.1 9.9 44 7.3 SW 9 13 5 7 1020.0 1017.2 0.0
07/07:00pm 23.9 21.9 8.7 38 8.4 SW 9 15 5 8 1019.5 1016.8 0.0
07/06:30pm 24.3 22.2 8.3 36 8.8 S 9 15 5 8 1019.2 1016.5 0.0
07/06:00pm 24.7 22.3 8.6 36 8.9 SSW 11 17 6 9 1019.1 1016.3 0.0

Other Formats:

Comma delimited format used in spreadsheet applications
http://www.bom.gov.au/fwo/IDV60801/IDV60801.94913.axf

JavaScript Object Notation format (JSON) in row-major order
http://www.bom.gov.au/fwo/IDV60801/IDV60801.94913.json